SAN FRANCISCO BAR, CA - 142

GPS Positions

GPS Time
Latitude
Degrees
Longitude
Degrees
Gap
 
Distance
NM
Speed
Knots
Direction
Degrees
2012 Jul 16, 21:01 37.78166° -122.59921° 30 min 0.03 0.03
266°
2012 Jul 16, 20:31 37.78168° -122.59886° 30 min 0.02 0.02
285°
2012 Jul 16, 20:01 37.78164° -122.59866° 30 min 0.02 0.00
332°
2012 Jul 16, 19:31 37.78162° -122.59865° 30 min 0.02 0.00
282°
2012 Jul 16, 19:01 37.78161° -122.59860° 30 min 0.02 0.00
223°
2012 Jul 16, 18:31 37.78163° -122.59858° 30 min 0.02 0.00
270°
2012 Jul 16, 18:01 37.78163° -122.59856° 30 min 0.03 0.00
2012 Jul 16, 17:31 37.78163° -122.59856° 30 min 0.03 0.00
2012 Jul 16, 17:01 37.78162° -122.59856° 30 min 0.03 0.00
284°
2012 Jul 16, 16:31 37.78161° -122.59852° 30 min 0.03 0.01
146°
2012 Jul 16, 16:01 37.78168° -122.59858° 30 min 0.03 0.01
337°
2012 Jul 16, 15:31 37.78161° -122.59854° 30 min 0.03 0.00
104°
2012 Jul 16, 15:01 37.78162° -122.59858° 30 min 0.02 0.01
134°
2012 Jul 16, 14:31 37.78168° -122.59866° 30 min 0.03 0.01
101°
2012 Jul 16, 14:01 37.78170° -122.59882° 30 min 0.02 0.03
75°
2012 Jul 16, 13:31 37.78165° -122.59908° 30 min 0.02 0.02
60°
2012 Jul 16, 13:01 37.78157° -122.59924° 30 min 0.02 0.02
41°
2012 Jul 16, 12:31 37.78146° -122.59937° 30 min 0.02 0.01
25°
2012 Jul 16, 12:01 37.78138° -122.59942° 30 min 0.03 0.01
27°
2012 Jul 16, 11:31 37.78131° -122.59946° 30 min 0.03 0.01
2012 Jul 16, 11:01 37.78127° -122.59946° 30 min 0.03 0.01
313°
2012 Jul 16, 10:31 37.78123° -122.59942° 30 min 0.02 0.01
310°
2012 Jul 16, 10:01 37.78120° -122.59937° 30 min 0.02 0.01
109°
2012 Jul 16, 09:31 37.78122° -122.59944° 30 min 0.03 0.00
90°
2012 Jul 16, 09:01 37.78122° -122.59948° 30 min 0.03 0.00
338°
2012 Jul 16, 08:31 37.78119° -122.59946° 30 min 0.03 0.00
288°
2012 Jul 16, 08:01 37.78118° -122.59942° 30 min 0.03 0.00
2012 Jul 16, 07:31 37.78117° -122.59942° 30 min 0.03 0.01
302°
2012 Jul 16, 07:01 37.78111° -122.59931° 30 min 0.02 0.01
319°
2012 Jul 16, 06:31 37.78104° -122.59923° 30 min 0.02 0.01
248°
2012 Jul 16, 06:01 37.78107° -122.59912° 30 min 0.02 0.03
281°
2012 Jul 16, 05:31 37.78102° -122.59878° 30 min 0.02 0.03
250°
2012 Jul 16, 05:01 37.78109° -122.59852° 30 min 0.02 0.01
180°
2012 Jul 16, 04:31 37.78115° -122.59852° 30 min 0.02 0.01
218°
2012 Jul 16, 04:01 37.78120° -122.59847° 30 min 0.02 0.00
211°
2012 Jul 16, 03:31 37.78123° -122.59845° 30 min 0.02 0.00
2012 Jul 16, 03:01 37.78123° -122.59845° 30 min 0.02 0.02
180°
2012 Jul 16, 02:31 37.78140° -122.59845° 30 min 0.02 0.02
157°
2012 Jul 16, 02:01 37.78153° -122.59852° 30 min 0.02 0.01
122°
2012 Jul 16, 01:31 37.78159° -122.59863° 30 min 0.02 0.02
127°
2012 Jul 16, 01:01 37.78166° -122.59875° 30 min 0.02 0.02
90°
2012 Jul 16, 00:31 37.78166° -122.59897° 30 min 0.02 0.03
53°
2012 Jul 16, 00:01 37.78151° -122.59923° 30 min 0.02 0.02
39°
2012 Jul 15, 23:31 37.78139° -122.59935° 30 min 0.02 0.01
2012 Jul 15, 23:01 37.78128° -122.59935° 30 min 0.02 0.00
180°
2012 Jul 15, 22:31 37.78132° -122.59935° 30 min 0.02 0.01
22°
2012 Jul 15, 22:01 37.78127° -122.59937° 30 min 0.02 0.00
293°
2012 Jul 15, 21:31 37.78127° -122.59935° 30 min 0.02 0.02
204°
2012 Jul 15, 21:01 37.78141° -122.59927° 30 min 0.02 0.04
240°
2012 Jul 15, 20:31 37.78160° -122.59886° 30 min 0.02 0.01
265°
2012 Jul 15, 20:01 37.78161° -122.59871° 30 min 0.02 0.00
180°
2012 Jul 15, 19:31 37.78162° -122.59871° 30 min 0.02 0.01
295°
2012 Jul 15, 19:01 37.78159° -122.59863° 30 min 0.02 0.00
302°
2012 Jul 15, 18:31 37.78157° -122.59860° 30 min 0.02 0.01
180°
2012 Jul 15, 18:01 37.78162° -122.59860° 30 min 0.02 0.00
298°
2012 Jul 15, 17:31 37.78160° -122.59856° 30 min 0.02 0.00
238°
2012 Jul 15, 17:01 37.78162° -122.59852° 30 min 0.03 0.00
90°
2012 Jul 15, 16:31 37.78162° -122.59856° 30 min 0.03 0.00
2012 Jul 15, 16:01 37.78162° -122.59856° 30 min 0.03 0.00
2012 Jul 15, 15:31 37.78162° -122.59856° 30 min 0.03 0.00
90°
2012 Jul 15, 15:01 37.78162° -122.59858° 30 min 0.02 0.01
135°
2012 Jul 15, 14:31 37.78167° -122.59865° 30 min 0.03 0.01
81°
2012 Jul 15, 14:01 37.78166° -122.59871° 30 min 0.02 0.03
79°
2012 Jul 15, 13:31 37.78162° -122.59901° 30 min 0.02 0.01
101°
2012 Jul 15, 13:01 37.78164° -122.59916° 30 min 0.02 0.02
48°
2012 Jul 15, 12:31 37.78153° -122.59931° 30 min 0.02 0.02
13°
2012 Jul 15, 12:01 37.78140° -122.59935° 30 min 0.02 0.02
25°
2012 Jul 15, 11:31 37.78128° -122.59942° 30 min 0.02 0.00
43°
2012 Jul 15, 11:01 37.78127° -122.59944° 30 min 0.03 0.01
180°
2012 Jul 15, 10:31 37.78131° -122.59944° 30 min 0.03 0.01
341°
2012 Jul 15, 10:01 37.78125° -122.59942° 30 min 0.02 0.00
58°
2012 Jul 15, 09:31 37.78124° -122.59944° 30 min 0.03 0.00
2012 Jul 15, 09:01 37.78124° -122.59944° 30 min 0.03 0.00
38°
2012 Jul 15, 08:31 37.78122° -122.59946° 30 min 0.03 0.00
270°
2012 Jul 15, 08:01 37.78122° -122.59942° 30 min 0.03 0.00
2012 Jul 15, 07:31 37.78121° -122.59942° 5 h, 30 min 0.03 0.01
261°
2012 Jul 15, 02:01 37.78134° -122.59845° 30 min 0.02 0.00
270°
2012 Jul 15, 01:31 37.78134° -122.59843° 30 min 0.02 0.01
199°
2012 Jul 15, 01:01 37.78139° -122.59841° 30 min 0.02 0.01
161°
2012 Jul 15, 00:31 37.78148° -122.59845° 30 min 0.02 0.01
116°
2012 Jul 15, 00:01 37.78152° -122.59856° 30 min 0.02 0.02
121°
2012 Jul 14, 23:31 37.78163° -122.59878° 30 min 0.02 0.03
105°
2012 Jul 14, 23:01 37.78169° -122.59908° 30 min 0.03 0.02
37°
2012 Jul 14, 22:31 37.78153° -122.59923° 30 min 0.02 0.01
44°
2012 Jul 14, 22:01 37.78144° -122.59933° 30 min 0.02 0.01
13°
2012 Jul 14, 21:31 37.78139° -122.59935° 30 min 0.02 0.01
2012 Jul 14, 21:01 37.78135° -122.59935° 30 min 0.02 0.00
2012 Jul 14, 20:31 37.78132° -122.59935° 30 min 0.02 0.02
205°
2012 Jul 14, 20:01 37.78150° -122.59924° 30 min 0.02 0.03
225°
2012 Jul 14, 19:31 37.78168° -122.59901° 30 min 0.02 0.02
289°
2012 Jul 14, 19:01 37.78163° -122.59882° 30 min 0.02 0.02
298°
2012 Jul 14, 18:31 37.78156° -122.59866° 30 min 0.02 0.01
180°
2012 Jul 14, 18:01 37.78162° -122.59866° 30 min 0.02 0.01
205°
2012 Jul 14, 17:31 37.78168° -122.59863° 30 min 0.03 0.01
339°
2012 Jul 14, 17:01 37.78159° -122.59858° 30 min 0.02 0.00
307°
2012 Jul 14, 16:31 37.78156° -122.59854° 30 min 0.02 0.00
238°
2012 Jul 14, 16:01 37.78157° -122.59852° 30 min 0.02 0.00
2012 Jul 14, 15:31 37.78157° -122.59852° 30 min 0.02 0.00
127°
2012 Jul 14, 15:01 37.78160° -122.59856° 30 min 0.02 0.00
2012 Jul 14, 14:31 37.78157° -122.59856° 30 min 0.02 0.00
180°
2012 Jul 14, 14:01 37.78161° -122.59856° 30 min 0.02 0.01
90°
2012 Jul 14, 13:31 37.78161° -122.59863° 30 min 0.02 0.02
112°
2012 Jul 14, 13:01 37.78167° -122.59882° 30 min 0.02 0.01
101°
2012 Jul 14, 12:31 37.78169° -122.59897° 30 min 0.02 0.03
58°
2012 Jul 14, 12:01 37.78156° -122.59923° 30 min 0.02 0.02
35°
2012 Jul 14, 11:31 37.78143° -122.59935° 30 min 0.02 0.01
25°
2012 Jul 14, 11:01 37.78135° -122.59940° 30 min 0.02 0.01
337°
2012 Jul 14, 10:31 37.78131° -122.59937° 30 min 0.02 0.01
29°
2012 Jul 14, 10:01 37.78124° -122.59942° 30 min 0.02 0.00
180°
2012 Jul 14, 09:31 37.78125° -122.59942° 30 min 0.02 0.01
16°
2012 Jul 14, 09:01 37.78119° -122.59944° 30 min 0.03 0.00
122°
2012 Jul 14, 08:31 37.78120° -122.59946° 30 min 0.03 0.00
180°
2012 Jul 14, 08:01 37.78122° -122.59946° 30 min 0.03 0.01
180°
2012 Jul 14, 07:31 37.78127° -122.59946° 30 min 0.03 0.01
331°
2012 Jul 14, 07:01 37.78117° -122.59940° 30 min 0.02 0.00
298°
2012 Jul 14, 06:31 37.78115° -122.59935° 30 min 0.02 0.01
349°
2012 Jul 14, 06:01 37.78108° -122.59933° 30 min 0.02 0.01
294°
2012 Jul 14, 05:31 37.78104° -122.59921° 30 min 0.02 0.03
275°
2012 Jul 14, 05:01 37.78102° -122.59892° 30 min 0.02 0.00
2012 Jul 14, 04:31 37.78102° -122.59892° 30 min 0.02 0.02
278°
2012 Jul 14, 04:01 37.78099° -122.59871° 30 min 0.02 0.02
229°
2012 Jul 14, 03:31 37.78108° -122.59858° 30 min 0.02 0.01
238°
2012 Jul 14, 03:01 37.78111° -122.59852° 30 min 0.02 0.01
221°
2012 Jul 14, 02:31 37.78119° -122.59843° 30 min 0.02 0.01
199°
2012 Jul 14, 02:01 37.78124° -122.59841° 30 min 0.02 0.00
238°
2012 Jul 14, 01:31 37.78125° -122.59839° 30 min 0.02 0.00
90°
2012 Jul 14, 01:01 37.78125° -122.59841° 30 min 0.02 0.01
180°
2012 Jul 14, 00:31 37.78133° -122.59841° 30 min 0.02 0.00
180°
2012 Jul 14, 00:01 37.78134° -122.59841° 1 h 0.02 0.01
46°
2012 Jul 13, 23:01 37.78127° -122.59850° 30 min 0.02 0.01
30°
2012 Jul 13, 22:31 37.78119° -122.59856° 30 min 0.02 0.05
74°
2012 Jul 13, 22:01 37.78108° -122.59901° 30 min 0.01 0.01
105°
2012 Jul 13, 21:31 37.78111° -122.59916° 30 min 0.02 0.02
118°
2012 Jul 13, 21:01 37.78118° -122.59931° 4 h, 30 min 0.02 0.01
263°
2012 Jul 13, 16:31 37.78127° -122.59843° 30 min 0.02 0.01
160°
2012 Jul 13, 16:01 37.78135° -122.59847° 30 min 0.02 0.01
196°
2012 Jul 13, 15:31 37.78141° -122.59845° 30 min 0.02 0.01
157°
2012 Jul 13, 15:01 37.78146° -122.59847° 30 min 0.02 0.01
151°
2012 Jul 13, 14:31 37.78152° -122.59852° 30 min 0.02 0.00
180°
2012 Jul 13, 14:01 37.78154° -122.59852° 30 min 0.02 0.01
144°
2012 Jul 13, 13:31 37.78159° -122.59856° 30 min 0.02 0.01
128°
2012 Jul 13, 13:01 37.78163° -122.59863° 30 min 0.02 0.01
90°
2012 Jul 13, 12:31 37.78163° -122.59878° 30 min 0.02 0.02
94°
2012 Jul 13, 12:01 37.78164° -122.59901° 30 min 0.02 0.02
66°
2012 Jul 13, 11:31 37.78156° -122.59923° 30 min 0.02 0.01
18°
2012 Jul 13, 11:01 37.78147° -122.59927° 30 min 0.02 0.01
41°
2012 Jul 13, 10:31 37.78139° -122.59935° 30 min 0.02 0.01
45°
2012 Jul 13, 10:01 37.78134° -122.59942° 6 h, 30 min 0.02 0.01
315°
2012 Jul 13, 03:31 37.78093° -122.59890° 30 min 0.02 0.02
240°
2012 Jul 13, 03:01 37.78102° -122.59871° 30 min 0.02 0.02
223°
2012 Jul 13, 02:31 37.78115° -122.59856° 30 min 0.02 0.01
250°
2012 Jul 13, 02:01 37.78118° -122.59845° 30 min 0.02 0.01
180°
2012 Jul 13, 01:31 37.78122° -122.59845° 30 min 0.02 0.01
180°
2012 Jul 13, 01:01 37.78127° -122.59845° 30 min 0.02 0.00
202°
2012 Jul 13, 00:31 37.78130° -122.59843° 30 min 0.02 0.00
211°
2012 Jul 13, 00:01 37.78133° -122.59841° 30 min 0.02 0.02
167°
2012 Jul 12, 23:31 37.78146° -122.59845° 30 min 0.02 0.00
142°
2012 Jul 12, 23:01 37.78148° -122.59847° 30 min 0.02 0.01
130°
2012 Jul 12, 22:31 37.78151° -122.59852° 30 min 0.02 0.01
82°
2012 Jul 12, 22:01 37.78150° -122.59863° 30 min 0.02 0.05
109°
2012 Jul 12, 21:31 37.78163° -122.59910° 30 min 0.02 0.04
38°
2012 Jul 12, 21:01 37.78139° -122.59933° 30 min 0.02 0.00
69°
2012 Jul 12, 20:31 37.78138° -122.59937° 30 min 0.02 0.02
206°
2012 Jul 12, 20:01 37.78156° -122.59927° 30 min 0.02 0.03
2012 Jul 12, 19:31 37.78132° -122.59929° 30 min 0.02 0.01
157°
2012 Jul 12, 19:01 37.78136° -122.59931° 30 min 0.02 0.00
90°
2012 Jul 12, 18:31 37.78136° -122.59933° 30 min 0.02 0.00
47°
2012 Jul 12, 18:01 37.78135° -122.59935° 30 min 0.02 0.01
202°
2012 Jul 12, 17:31 37.78143° -122.59931° 30 min 0.02 0.02
33°
2012 Jul 12, 17:01 37.78127° -122.59944° 30 min 0.03 0.03
212°
2012 Jul 12, 16:31 37.78149° -122.59927° 30 min 0.02 0.02
228°
2012 Jul 12, 16:01 37.78161° -122.59910° 30 min 0.02 0.03
265°
2012 Jul 12, 15:31 37.78163° -122.59882° 30 min 0.02 0.01
122°
2012 Jul 12, 15:01 37.78167° -122.59890° 30 min 0.02 0.01
270°
2012 Jul 12, 14:31 37.78167° -122.59882° 30 min 0.02 0.00
2012 Jul 12, 14:01 37.78167° -122.59882° 30 min 0.02 0.01
71°
2012 Jul 12, 13:31 37.78165° -122.59888° 30 min 0.02 0.00
111°
2012 Jul 12, 13:01 37.78166° -122.59892° 30 min 0.02 0.01
98°
2012 Jul 12, 12:31 37.78167° -122.59899° 30 min 0.02 0.01
90°
2012 Jul 12, 12:01 37.78167° -122.59905° 30 min 0.02 0.01
52°
2012 Jul 12, 11:31 37.78163° -122.59912° 30 min 0.02 0.02
54°
2012 Jul 12, 11:01 37.78154° -122.59927° 30 min 0.02 0.01
119°
2012 Jul 12, 10:31 37.78157° -122.59933° 30 min 0.03 0.01
16°
2012 Jul 12, 10:01 37.78147° -122.59937° 30 min 0.02 0.01
19°
2012 Jul 12, 09:31 37.78136° -122.59942° 30 min 0.02 0.01
2012 Jul 12, 09:01 37.78132° -122.59942° 30 min 0.02 0.01
29°
2012 Jul 12, 08:31 37.78125° -122.59946° 30 min 0.03 0.01
230°
2012 Jul 12, 08:01 37.78128° -122.59942° 30 min 0.02 0.00
2012 Jul 12, 07:31 37.78125° -122.59942° 30 min 0.02 0.00
90°
2012 Jul 12, 07:01 37.78125° -122.59946° 30 min 0.03 0.00
270°
2012 Jul 12, 06:31 37.78125° -122.59942° 30 min 0.02 0.00
2012 Jul 12, 06:01 37.78124° -122.59942° 30 min 0.02 0.01
2012 Jul 12, 05:31 37.78120° -122.59942° 30 min 0.03 0.01
322°
2012 Jul 12, 05:01 37.78115° -122.59937° 30 min 0.02 0.01
337°
2012 Jul 12, 04:31 37.78111° -122.59935° 30 min 0.02 0.01
304°
2012 Jul 12, 04:01 37.78105° -122.59923° 30 min 0.02 0.01
315°
2012 Jul 12, 03:31 37.78096° -122.59912° 30 min 0.02 0.02
266°
2012 Jul 12, 03:01 37.78098° -122.59890° 30 min 0.02 0.02
257°
2012 Jul 12, 02:31 37.78102° -122.59866° 30 min 0.02 0.02
215°
2012 Jul 12, 02:01 37.78115° -122.59854° 30 min 0.02 0.02
213°
2012 Jul 12, 01:31 37.78127° -122.59845° 30 min 0.02 0.01
186°
2012 Jul 12, 01:01 37.78137° -122.59843° 30 min 0.02 0.00
148°
2012 Jul 12, 00:31 37.78139° -122.59845° 30 min 0.02 0.00
2012 Jul 12, 00:01 37.78138° -122.59845° 30 min 0.02 0.01
180°
2012 Jul 11, 23:31 37.78143° -122.59845° 30 min 0.02 0.00
122°
2012 Jul 11, 23:01 37.78144° -122.59847° 30 min 0.02 0.00
180°
2012 Jul 11, 22:31 37.78144° -122.59847° 30 min 0.02 0.02
155°
2012 Jul 11, 22:01 37.78159° -122.59856° 30 min 0.02 0.02
128°
2012 Jul 11, 21:31 37.78168° -122.59871° 6 h, 30 min 0.02 0.00
56°
2012 Jul 11, 15:01 37.78138° -122.59927° 30 min 0.02 0.03
212°
2012 Jul 11, 14:31 37.78156° -122.59912° 30 min 0.02 0.03
255°
2012 Jul 11, 14:01 37.78162° -122.59886° 30 min 0.02 0.01
279°
2012 Jul 11, 13:31 37.78160° -122.59871° 30 min 0.02 0.01
289°
2012 Jul 11, 13:01 37.78157° -122.59863° 30 min 0.02 0.01
139°
2012 Jul 11, 12:31 37.78161° -122.59866° 30 min 0.02 0.02
114°
2012 Jul 11, 12:01 37.78166° -122.59882° 30 min 0.02 0.00
102°
2012 Jul 11, 11:31 37.78167° -122.59886° 30 min 0.02 0.01
81°
2012 Jul 11, 11:01 37.78165° -122.59901° 30 min 0.02 0.01
63°
2012 Jul 11, 10:31 37.78162° -122.59910° 30 min 0.02 0.01
45°
2012 Jul 11, 10:01 37.78153° -122.59921° 30 min 0.02 0.01
82°
2012 Jul 11, 09:31 37.78152° -122.59931° 30 min 0.02 0.01
27°
2012 Jul 11, 09:01 37.78143° -122.59937° 30 min 0.02 0.01
331°
2012 Jul 11, 08:31 37.78137° -122.59933° 30 min 0.02 0.01
37°
2012 Jul 11, 08:01 37.78128° -122.59942° 30 min 0.02 0.00
2012 Jul 11, 07:31 37.78127° -122.59942° 30 min 0.02 0.00
180°
2012 Jul 11, 07:01 37.78127° -122.59942° 30 min 0.02 0.00
62°
2012 Jul 11, 06:31 37.78125° -122.59946° 30 min 0.03 0.01
230°
2012 Jul 11, 06:01 37.78128° -122.59942° 30 min 0.02 0.00
2012 Jul 11, 05:31 37.78128° -122.59942° 30 min 0.02 0.01
2012 Jul 11, 05:01 37.78119° -122.59942° 30 min 0.03 0.00
2012 Jul 11, 04:31 37.78117° -122.59942° 30 min 0.03 0.01
238°
2012 Jul 11, 04:01 37.78119° -122.59937° 30 min 0.02 0.01
325°
2012 Jul 11, 03:31 37.78109° -122.59929° 12 h, 30 min 0.02 0.00
167°
2012 Jul 10, 15:01 37.78137° -122.59937° 30 min 0.02 0.01
199°
2012 Jul 10, 14:31 37.78143° -122.59935° 30 min 0.02 0.01
254°
2012 Jul 10, 14:01 37.78144° -122.59927° 30 min 0.02 0.05
247°
2012 Jul 10, 13:31 37.78160° -122.59882° 30 min 0.02 0.02
293°
2012 Jul 10, 13:01 37.78153° -122.59863° 30 min 0.02 0.01
292°
2012 Jul 10, 12:31 37.78150° -122.59852° 30 min 0.02 0.01
158°
2012 Jul 10, 12:01 37.78154° -122.59854° 13 h 0.02 0.00
331°
2012 Jul 09, 23:01 37.78136° -122.59841° 30 min 0.02 0.01
167°
2012 Jul 09, 22:31 37.78144° -122.59843° 30 min 0.02 0.01
180°
2012 Jul 09, 22:01 37.78149° -122.59843° 30 min 0.02 0.01
144°
2012 Jul 09, 21:31 37.78153° -122.59847° 30 min 0.02 0.00
2012 Jul 09, 21:01 37.78150° -122.59847° 30 min 0.02 0.01
190°
2012 Jul 09, 20:31 37.78160° -122.59845° 30 min 0.03 0.01
65°
2012 Jul 09, 20:01 37.78156° -122.59854° 30 min 0.02 0.03
111°
2012 Jul 09, 19:31 37.78164° -122.59879° 30 min 0.02 0.03
90°
2012 Jul 09, 19:01 37.78164° -122.59910° 30 min 0.02 0.03
47°
2012 Jul 09, 18:31 37.78146° -122.59935° 30 min 0.02 0.01
23°
2012 Jul 09, 18:01 37.78137° -122.59940° 30 min 0.02 0.01
19°
2012 Jul 09, 17:31 37.78132° -122.59942° 30 min 0.02 0.00
72°
2012 Jul 09, 17:01 37.78131° -122.59946° 30 min 0.03 0.01
16°
2012 Jul 09, 16:31 37.78127° -122.59948° 30 min 0.03 0.00
270°
2012 Jul 09, 16:01 37.78127° -122.59946° 30 min 0.03 0.01
2012 Jul 09, 15:31 37.78122° -122.59946° 30 min 0.03 0.01
310°
2012 Jul 09, 15:01 37.78119° -122.59942° 30 min 0.03 0.02
335°
2012 Jul 09, 14:31 37.78107° -122.59935° 30 min 0.03 0.00
249°
2012 Jul 09, 14:01 37.78108° -122.59931° 30 min 0.02 0.00
180°
2012 Jul 09, 13:31 37.78110° -122.59931° 30 min 0.02 0.03
300°
2012 Jul 09, 13:01 37.78099° -122.59908° 30 min 0.02 0.04
255°
2012 Jul 09, 12:31 37.78107° -122.59871° 30 min 0.02 0.03
224°
2012 Jul 09, 12:01 37.78127° -122.59847° 30 min 0.02 0.02
188°
2012 Jul 09, 11:31 37.78139° -122.59845° 30 min 0.02 0.00
180°
2012 Jul 09, 11:01 37.78140° -122.59845° 30 min 0.02 0.00
2012 Jul 09, 10:31 37.78139° -122.59845° 30 min 0.02 0.00
2012 Jul 09, 10:01 37.78137° -122.59845° 30 min 0.02 0.00
2012 Jul 09, 09:31 37.78137° -122.59845° 30 min 0.02 0.01
351°
2012 Jul 09, 09:01 37.78130° -122.59843° 30 min 0.02 0.00
133°
2012 Jul 09, 08:31 37.78131° -122.59845° 30 min 0.02 0.02
16°
2012 Jul 09, 08:01 37.78111° -122.59852° 30 min 0.02 0.02
83°
2012 Jul 09, 07:31 37.78109° -122.59871° 30 min 0.02 0.04
90°
2012 Jul 09, 07:01 37.78109° -122.59916° 30 min 0.02 0.01
32°
2012 Jul 09, 06:31 37.78104° -122.59921° 30 min 0.02 0.02
134°
2012 Jul 09, 06:01 37.78115° -122.59935° 30 min 0.02 0.00
2012 Jul 09, 05:31 37.78114° -122.59935° 30 min 0.02 0.01
297°
2012 Jul 09, 05:01 37.78110° -122.59927° 30 min 0.02 0.01
118°
2012 Jul 09, 04:31 37.78115° -122.59937° 30 min 0.02 0.01
341°
2012 Jul 09, 04:01 37.78109° -122.59935° 30 min 0.02 0.01
295°
2012 Jul 09, 03:31 37.78105° -122.59923° 30 min 0.02 0.00
2012 Jul 09, 03:01 37.78103° -122.59923° 30 min 0.02 0.00
104°
2012 Jul 09, 02:31 37.78104° -122.59927° 30 min 0.02 0.01
301°
2012 Jul 09, 02:01 37.78098° -122.59914° 30 min 0.02 0.01
290°
2012 Jul 09, 01:31 37.78094° -122.59901° 30 min 0.02 0.03
257°
2012 Jul 09, 01:01 37.78099° -122.59873° 30 min 0.02 0.02
238°
2012 Jul 09, 00:31 37.78108° -122.59856° 30 min 0.02 0.01
218°
2012 Jul 09, 00:01 37.78117° -122.59847° 1 h 0.02 0.01
207°
2012 Jul 08, 23:01 37.78130° -122.59839° 20 h, 30 min 0.02 0.00
77°
2012 Jul 08, 02:31 37.78112° -122.59935° 30 min 0.02 0.00
180°
2012 Jul 08, 02:01 37.78115° -122.59935° 30 min 0.02 0.01
319°
2012 Jul 08, 01:31 37.78111° -122.59931° 30 min 0.02 0.02
243°
2012 Jul 08, 01:01 37.78119° -122.59912° 30 min 0.01 0.05
282°
2012 Jul 08, 00:31 37.78111° -122.59865° 30 min 0.02 0.04
203°
2012 Jul 08, 00:01 37.78139° -122.59850° 30 min 0.02 0.01
170°
2012 Jul 07, 23:31 37.78149° -122.59852° 30 min 0.02 0.00
242°
2012 Jul 07, 23:01 37.78151° -122.59847° 30 min 0.02 0.01
151°
2012 Jul 07, 22:31 37.78157° -122.59852° 30 min 0.02 0.01
180°
2012 Jul 07, 22:01 37.78164° -122.59852° 30 min 0.03 0.00
31°
2012 Jul 07, 21:31 37.78161° -122.59854° 30 min 0.03 0.01
282°
2012 Jul 07, 21:01 37.78160° -122.59847° 30 min 0.03 0.00
2012 Jul 07, 20:31 37.78156° -122.59847° 30 min 0.03 0.00
152°
2012 Jul 07, 20:01 37.78160° -122.59850° 6 h 0.03 0.01
64°
2012 Jul 07, 14:01 37.78122° -122.59946° 30 min 0.03 0.01
346°
2012 Jul 07, 13:31 37.78115° -122.59944° 30 min 0.03 0.01
166°
2012 Jul 07, 13:01 37.78122° -122.59946° 30 min 0.03 0.00
270°
2012 Jul 07, 12:31 37.78122° -122.59942° 30 min 0.03 0.01
343°
2012 Jul 07, 12:01 37.78110° -122.59937° 30 min 0.03 0.01
302°
2012 Jul 07, 11:31 37.78106° -122.59929° 30 min 0.02 0.01
292°
2012 Jul 07, 11:01 37.78102° -122.59916° 30 min 0.02 0.02
270°
2012 Jul 07, 10:31 37.78102° -122.59892° 30 min 0.02 0.04
244°
2012 Jul 07, 10:01 37.78115° -122.59858° 30 min 0.02 0.01
238°
2012 Jul 07, 09:31 37.78119° -122.59850° 30 min 0.02 0.02
198°
2012 Jul 07, 09:01 37.78134° -122.59843° 30 min 0.02 0.01
190°
2012 Jul 07, 08:31 37.78144° -122.59841° 30 min 0.02 0.00
180°
2012 Jul 07, 08:01 37.78144° -122.59841° 30 min 0.02 0.01
139°
2012 Jul 07, 07:31 37.78148° -122.59845° 30 min 0.02 0.01
164°
2012 Jul 07, 07:01 37.78154° -122.59847° 30 min 0.03 0.00
118°
2012 Jul 07, 06:31 37.78156° -122.59852° 30 min 0.02 0.02
113°
2012 Jul 07, 06:01 37.78163° -122.59871° 30 min 0.02 0.04
81°
2012 Jul 07, 05:31 37.78157° -122.59912° 30 min 0.02 0.04
43°
2012 Jul 07, 05:01 37.78134° -122.59940° 30 min 0.02 0.01
341°
2012 Jul 07, 04:31 37.78128° -122.59937° 30 min 0.02 0.00
62°
2012 Jul 07, 04:01 37.78127° -122.59942° 30 min 0.02 0.00
2012 Jul 07, 03:31 37.78124° -122.59942° 30 min 0.02 0.00
2012 Jul 07, 03:01 37.78123° -122.59942° 30 min 0.02 0.00
31°
2012 Jul 07, 02:31 37.78120° -122.59944° 30 min 0.03 0.00
270°
2012 Jul 07, 02:01 37.78120° -122.59942° 30 min 0.03 0.00
2012 Jul 07, 01:31 37.78118° -122.59942° 30 min 0.03 0.01
258°
2012 Jul 07, 01:01 37.78119° -122.59935° 30 min 0.02 0.00
180°
2012 Jul 07, 00:31 37.78120° -122.59935° 30 min 0.02 0.07
246°
2012 Jul 07, 00:01 37.78144° -122.59866° 30 min 0.01 0.01
204°
2012 Jul 06, 23:31 37.78154° -122.59860° 30 min 0.02 0.01
199°
2012 Jul 06, 23:01 37.78160° -122.59858° 30 min 0.02 0.00
332°
2012 Jul 06, 22:31 37.78156° -122.59856° 30 min 0.02 0.01
180°
2012 Jul 06, 22:01 37.78167° -122.59856° 30 min 0.03 0.01
37°
2012 Jul 06, 21:31 37.78160° -122.59863° 30 min 0.02 0.01
230°
2012 Jul 06, 21:01 37.78163° -122.59858° 30 min 0.02 0.01
333°
2012 Jul 06, 20:31 37.78153° -122.59852° 30 min 0.02 0.00
180°
2012 Jul 06, 20:01 37.78156° -122.59852° 30 min 0.02 0.00
2012 Jul 06, 19:31 37.78156° -122.59852° 30 min 0.02 0.00
270°
2012 Jul 06, 19:01 37.78156° -122.59847° 30 min 0.03 0.00
137°
2012 Jul 06, 18:31 37.78157° -122.59850° 30 min 0.03 0.01
103°
2012 Jul 06, 18:01 37.78160° -122.59863° 30 min 0.02 0.01
118°
2012 Jul 06, 17:31 37.78165° -122.59875° 30 min 0.02 0.03
90°
2012 Jul 06, 17:01 37.78165° -122.59910° 30 min 0.02 0.03
49°
2012 Jul 06, 16:31 37.78148° -122.59935° 30 min 0.02 0.02
20°
2012 Jul 06, 16:01 37.78133° -122.59942° 30 min 0.02 0.00
2012 Jul 06, 15:31 37.78130° -122.59942° 30 min 0.02 0.01
25°
2012 Jul 06, 15:01 37.78122° -122.59946° 30 min 0.03 0.01
29°
2012 Jul 06, 14:31 37.78117° -122.59950° 30 min 0.03 0.01
221°
2012 Jul 06, 14:01 37.78120° -122.59946° 30 min 0.03 0.00
2012 Jul 06, 13:31 37.78118° -122.59946° 13 h 0.03 0.00
304°
2012 Jul 06, 00:31 37.78107° -122.59927° 30 min 0.02 0.01
309°
2012 Jul 06, 00:01 37.78102° -122.59918° 30 min 0.02 0.01
278°
2012 Jul 05, 23:31 37.78101° -122.59908° 30 min 0.02 0.03
268°
2012 Jul 05, 23:01 37.78102° -122.59871° 30 min 0.02 0.04
220°
2012 Jul 05, 22:31 37.78124° -122.59847° 30 min 0.02 0.02
188°
2012 Jul 05, 22:01 37.78138° -122.59845° 30 min 0.02 0.01
213°
2012 Jul 05, 21:31 37.78143° -122.59841° 30 min 0.02 0.01
203°
2012 Jul 05, 21:01 37.78147° -122.59839° 30 min 0.03 0.00
90°
2012 Jul 05, 20:31 37.78147° -122.59841° 30 min 0.03 0.01
135°
2012 Jul 05, 20:01 37.78150° -122.59845° 30 min 0.02 0.00
180°
2012 Jul 05, 19:31 37.78151° -122.59845° 30 min 0.02 0.00
180°
2012 Jul 05, 19:01 37.78153° -122.59845° 30 min 0.03 0.00
2012 Jul 05, 18:31 37.78150° -122.59845° 30 min 0.02 0.01
221°
2012 Jul 05, 18:01 37.78153° -122.59841° 30 min 0.03 0.01
131°
2012 Jul 05, 17:31 37.78157° -122.59847° 30 min 0.03 0.01
117°
2012 Jul 05, 17:01 37.78161° -122.59856° 3 h, 30 min 0.02 0.01
62°
2012 Jul 05, 13:31 37.78122° -122.59946° 30 min 0.03 0.00
180°
2012 Jul 05, 13:01 37.78123° -122.59946° 30 min 0.03 0.00
90°
2012 Jul 05, 12:31 37.78123° -122.59948° 30 min 0.03 0.00
338°
2012 Jul 05, 12:01 37.78120° -122.59946° 30 min 0.03 0.00
2012 Jul 05, 11:31 37.78117° -122.59946° 30 min 0.03 0.01
180°
2012 Jul 05, 11:01 37.78122° -122.59946° 30 min 0.03 0.01
327°
2012 Jul 05, 10:31 37.78114° -122.59940° 9 h, 30 min 0.03 0.00
185°
2012 Jul 05, 01:01 37.78135° -122.59937° 30 min 0.02 0.01
54°
2012 Jul 05, 00:31 37.78130° -122.59946° 30 min 0.03 0.02
329°
2012 Jul 05, 00:01 37.78118° -122.59937° 30 min 0.02 0.01
171°
2012 Jul 04, 23:31 37.78130° -122.59940° 30 min 0.02 0.01
199°
2012 Jul 04, 23:01 37.78140° -122.59935° 30 min 0.02 0.04
227°
2012 Jul 04, 22:31 37.78165° -122.59901° 30 min 0.02 0.03
265°
2012 Jul 04, 22:01 37.78167° -122.59871° 30 min 0.02 0.00
282°
2012 Jul 04, 21:31 37.78166° -122.59866° 30 min 0.02 0.00
291°
2012 Jul 04, 21:01 37.78165° -122.59863° 30 min 0.02 0.00
238°
2012 Jul 04, 20:31 37.78166° -122.59860° 30 min 0.03 0.01
313°
2012 Jul 04, 20:01 37.78163° -122.59856° 30 min 0.03 0.00
291°
2012 Jul 04, 19:31 37.78162° -122.59852° 30 min 0.03 0.00
180°
2012 Jul 04, 19:01 37.78165° -122.59852° 30 min 0.03 0.00
2012 Jul 04, 18:31 37.78164° -122.59852° 30 min 0.03 0.00
122°
2012 Jul 04, 18:01 37.78165° -122.59854° 2 h, 30 min 0.03 0.01
92°
2012 Jul 04, 15:31 37.78167° -122.59921° 30 min 0.03 0.03
38°
2012 Jul 04, 15:01 37.78150° -122.59937° 30 min 0.03 0.01
23°
2012 Jul 04, 14:31 37.78141° -122.59942° 30 min 0.03 0.01
12°
2012 Jul 04, 14:01 37.78133° -122.59944° 30 min 0.03 0.01
223°
2012 Jul 04, 13:31 37.78140° -122.59935° 30 min 0.02 0.02
23°
2012 Jul 04, 13:01 37.78127° -122.59942° 30 min 0.02 0.01
34°
2012 Jul 04, 12:31 37.78122° -122.59946° 30 min 0.03 0.00
58°
2012 Jul 04, 12:01 37.78120° -122.59950° 30 min 0.03 0.00
270°
2012 Jul 04, 11:31 37.78120° -122.59948° 30 min 0.03 0.00
58°
2012 Jul 04, 11:01 37.78119° -122.59950° 13 h 0.03 0.00
288°
2012 Jul 03, 22:01 37.78101° -122.59878° 30 min 0.02 0.03
232°
2012 Jul 03, 21:31 37.78117° -122.59852° 30 min 0.02 0.02
199°
2012 Jul 03, 21:01 37.78133° -122.59845° 30 min 0.02 0.01
180°
2012 Jul 03, 20:31 37.78140° -122.59845° 5 h 0.02 0.00
140°
2012 Jul 03, 15:31 37.78165° -122.59871° 1 h 0.02 0.03
72°
2012 Jul 03, 14:31 37.78150° -122.59931° 30 min 0.02 0.02
25°
2012 Jul 03, 14:01 37.78132° -122.59942° 30 min 0.02 0.00
2012 Jul 03, 13:31 37.78132° -122.59942° 30 min 0.02 0.01
217°
2012 Jul 03, 13:01 37.78139° -122.59935° 30 min 0.02 0.02
36°
2012 Jul 03, 12:31 37.78127° -122.59946° 30 min 0.03 0.01
2012 Jul 03, 12:01 37.78119° -122.59946° 30 min 0.03 0.01
347°
2012 Jul 03, 11:31 37.78111° -122.59944° 30 min 0.03 0.00
142°
2012 Jul 03, 11:01 37.78114° -122.59946° 30 min 0.03 0.00
180°
2012 Jul 03, 10:31 37.78115° -122.59946° 30 min 0.03 0.00
247°
2012 Jul 03, 10:01 37.78115° -122.59944° 30 min 0.03 0.00
2012 Jul 03, 09:31 37.78112° -122.59944° 30 min 0.03 0.01
300°
2012 Jul 03, 09:01 37.78108° -122.59935° 30 min 0.03 0.01
299°
2012 Jul 03, 08:31 37.78103° -122.59923° 30 min 0.02 0.02
302°
2012 Jul 03, 08:01 37.78095° -122.59908° 30 min 0.02 0.02
273°
2012 Jul 03, 07:31 37.78094° -122.59882° 30 min 0.02 0.03
260°
2012 Jul 03, 07:01 37.78098° -122.59852° 30 min 0.03 0.01
190°
2012 Jul 03, 06:31 37.78108° -122.59850° 30 min 0.02 0.01
196°
2012 Jul 03, 06:01 37.78115° -122.59847° 30 min 0.02 0.01
248°
2012 Jul 03, 05:31 37.78117° -122.59841° 30 min 0.02 0.01
158°
2012 Jul 03, 05:01 37.78121° -122.59843° 30 min 0.02 0.00
270°
2012 Jul 03, 04:31 37.78121° -122.59841° 30 min 0.02 0.00
180°
2012 Jul 03, 04:01 37.78124° -122.59841° 12 h 0.02 0.00
168°
2012 Jul 02, 16:01 37.78154° -122.59850° 30 min 0.02 0.00
223°
2012 Jul 02, 15:31 37.78156° -122.59847° 30 min 0.03 0.01
125°
2012 Jul 02, 15:01 37.78161° -122.59856° 30 min 0.02 0.02
117°
2012 Jul 02, 14:31 37.78167° -122.59871° 30 min 0.02 0.04
81°
2012 Jul 02, 14:01 37.78162° -122.59916° 30 min 0.02 0.03
43°
2012 Jul 02, 13:31 37.78144° -122.59937° 30 min 0.02 0.01
351°
2012 Jul 02, 13:01 37.78133° -122.59935° 30 min 0.02 0.01
60°
2012 Jul 02, 12:31 37.78128° -122.59944° 30 min 0.03 0.00
43°
2012 Jul 02, 12:01 37.78127° -122.59946° 30 min 0.03 0.01
2012 Jul 02, 11:31 37.78122° -122.59946° 30 min 0.03 0.00
90°
2012 Jul 02, 11:01 37.78122° -122.59948° 30 min 0.03 0.00
2012 Jul 02, 10:31 37.78121° -122.59948° 30 min 0.03 0.00
38°
2012 Jul 02, 10:01 37.78119° -122.59950° 30 min 0.03 0.00
180°
2012 Jul 02, 09:31 37.78120° -122.59950° 30 min 0.03 0.00
90°
2012 Jul 02, 09:01 37.78120° -122.59953° 30 min 0.03 0.00
252°
2012 Jul 02, 08:31 37.78121° -122.59948° 30 min 0.03 0.02
311°
2012 Jul 02, 08:01 37.78112° -122.59935° 30 min 0.02 0.01
331°
2012 Jul 02, 07:31 37.78104° -122.59929° 30 min 0.02 0.03
298°
2012 Jul 02, 07:01 37.78093° -122.59903° 30 min 0.02 0.02
270°
2012 Jul 02, 06:31 37.78093° -122.59886° 30 min 0.02 0.02
251°
2012 Jul 02, 06:01 37.78098° -122.59866° 30 min 0.02 0.02
226°
2012 Jul 02, 05:31 37.78109° -122.59852° 30 min 0.02 0.02
208°
2012 Jul 02, 05:01 37.78122° -122.59843° 30 min 0.02 0.00
2012 Jul 02, 04:31 37.78122° -122.59843° 13 h 0.02 0.00
175°
2012 Jul 01, 15:31 37.78156° -122.59847° 30 min 0.03 0.01
58°
2012 Jul 01, 15:01 37.78153° -122.59852° 30 min 0.02 0.01
145°
2012 Jul 01, 14:31 37.78163° -122.59860° 30 min 0.02 0.02
109°
2012 Jul 01, 14:01 37.78167° -122.59875° 30 min 0.02 0.02
97°
2012 Jul 01, 13:31 37.78169° -122.59899° 30 min 0.02 0.04
51°
2012 Jul 01, 13:01 37.78149° -122.59931° 30 min 0.02 0.02
22°
2012 Jul 01, 12:31 37.78137° -122.59937° 30 min 0.02 0.01
29°
2012 Jul 01, 12:01 37.78127° -122.59944° 30 min 0.03 0.00
2012 Jul 01, 11:31 37.78124° -122.59944° 30 min 0.03 0.00
2012 Jul 01, 11:01 37.78123° -122.59944° 30 min 0.03 0.00
58°
2012 Jul 01, 10:31 37.78122° -122.59946° 30 min 0.03 0.05
280°
2012 Jul 01, 10:01 37.78115° -122.59892° 30 min 0.01 0.05
106°
2012 Jul 01, 09:31 37.78125° -122.59940° 30 min 0.02 0.01
78°
2012 Jul 01, 09:01 37.78124° -122.59946° 30 min 0.03 0.01
45°
2012 Jul 01, 08:31 37.78121° -122.59950° 30 min 0.03 0.01
319°
2012 Jul 01, 08:01 37.78118° -122.59946° 30 min 0.03 0.01
302°
2012 Jul 01, 07:31 37.78115° -122.59942° 30 min 0.03 0.01
318°
2012 Jul 01, 07:01 37.78109° -122.59935° 30 min 0.02 0.01
314°
2012 Jul 01, 06:31 37.78103° -122.59927° 30 min 0.02 0.01
305°
2012 Jul 01, 06:01 37.78099° -122.59921° 30 min 0.02 0.02
279°
2012 Jul 01, 05:31 37.78096° -122.59897° 3 h, 30 min 0.02 0.01
220°
2012 Jul 01, 02:01 37.78144° -122.59845° 30 min 0.02 0.00
180°
2012 Jul 01, 01:31 37.78147° -122.59845° 30 min 0.02 0.01
285°
2012 Jul 01, 01:01 37.78144° -122.59834° 30 min 0.03 0.01
112°
2012 Jul 01, 00:31 37.78148° -122.59845° 30 min 0.02 0.02
128°
2012 Jul 01, 00:01 37.78157° -122.59860° 30 min 0.02 0.03
98°
2012 Jun 30, 23:31 37.78161° -122.59892° 30 min 0.02 0.04
63°
2012 Jun 30, 23:01 37.78147° -122.59927° 30 min 0.02 0.02
20°
2012 Jun 30, 22:31 37.78132° -122.59933° 30 min 0.02 0.01
17°
2012 Jun 30, 22:01 37.78122° -122.59937° 30 min 0.02 0.00
2012 Jun 30, 21:31 37.78122° -122.59937° 30 min 0.02 0.02
199°
2012 Jun 30, 21:01 37.78136° -122.59931° 30 min 0.02 0.02
2012 Jun 30, 20:31 37.78119° -122.59933° 30 min 0.02 0.01
240°
2012 Jun 30, 20:01 37.78123° -122.59924° 30 min 0.02 0.04
227°
2012 Jun 30, 19:31 37.78144° -122.59897° 30 min 0.01 0.03
218°
2012 Jun 30, 19:01 37.78162° -122.59879° 30 min 0.02 0.01
270°
2012 Jun 30, 18:31 37.78162° -122.59866° 30 min 0.02 0.01
324°
2012 Jun 30, 18:01 37.78157° -122.59863° 30 min 0.02 0.00
270°
2012 Jun 30, 17:31 37.78157° -122.59858° 30 min 0.02 0.00
302°
2012 Jun 30, 17:01 37.78156° -122.59856° 30 min 0.02 0.00
284°
2012 Jun 30, 16:31 37.78156° -122.59852° 30 min 0.02 0.00
2012 Jun 30, 16:01 37.78152° -122.59852° 30 min 0.02 0.00
238°
2012 Jun 30, 15:31 37.78153° -122.59850° 1 h 0.02 0.00
218°
2012 Jun 30, 14:31 37.78156° -122.59847° 30 min 0.03 0.00
113°
2012 Jun 30, 14:01 37.78156° -122.59850° 30 min 0.02 0.01
115°
2012 Jun 30, 13:31 37.78159° -122.59856° 30 min 0.02 0.01
103°
2012 Jun 30, 13:01 37.78161° -122.59869° 30 min 0.02 0.03
99°
2012 Jun 30, 12:31 37.78165° -122.59901° 30 min 0.02 0.03
52°
2012 Jun 30, 12:01 37.78148° -122.59929° 30 min 0.02 0.01
26°
2012 Jun 30, 11:31 37.78138° -122.59935° 30 min 0.02 0.01
27°
2012 Jun 30, 11:01 37.78127° -122.59942° 30 min 0.02 0.00
43°
2012 Jun 30, 10:31 37.78125° -122.59944° 30 min 0.03 0.00
332°
2012 Jun 30, 10:01 37.78122° -122.59942° 30 min 0.03 0.00
270°
2012 Jun 30, 09:31 37.78122° -122.59937° 30 min 0.02 0.01
115°
2012 Jun 30, 09:01 37.78125° -122.59946° 30 min 0.03 0.00
302°
2012 Jun 30, 08:31 37.78124° -122.59944° 30 min 0.03 0.00
38°
2012 Jun 30, 08:01 37.78122° -122.59946° 30 min 0.03 0.00
90°
2012 Jun 30, 07:31 37.78122° -122.59950° 30 min 0.03 0.01
324°
2012 Jun 30, 07:01 37.78118° -122.59946° 30 min 0.03 0.01
312°
2012 Jun 30, 06:31 37.78111° -122.59937° 30 min 0.03 0.01
318°
2012 Jun 30, 06:01 37.78106° -122.59931° 1 h 0.02 0.01
298°
2012 Jun 30, 05:01 37.78095° -122.59905° 30 min 0.02 0.02
262°
2012 Jun 30, 04:31 37.78098° -122.59879° 30 min 0.02 0.03
235°
2012 Jun 30, 04:01 37.78111° -122.59856° 30 min 0.02 0.01
214°
2012 Jun 30, 03:31 37.78121° -122.59847° 30 min 0.02 0.01
194°
2012 Jun 30, 03:01 37.78128° -122.59845° 30 min 0.02 0.01
221°
2012 Jun 30, 02:31 37.78132° -122.59841° 30 min 0.02 0.01
180°
2012 Jun 30, 02:01 37.78138° -122.59841° 30 min 0.02 0.01
202°
2012 Jun 30, 01:31 37.78143° -122.59839° 30 min 0.03 0.00
2012 Jun 30, 01:01 37.78140° -122.59839° 30 min 0.03 0.00
108°
2012 Jun 30, 00:31 37.78141° -122.59843° 30 min 0.02 0.00
180°
2012 Jun 30, 00:01 37.78143° -122.59843° 30 min 0.02 0.00
47°
2012 Jun 29, 23:31 37.78141° -122.59845° 30 min 0.02 0.00
180°
2012 Jun 29, 23:01 37.78144° -122.59845° 30 min 0.02 0.01
52°
2012 Jun 29, 22:31 37.78138° -122.59856° 30 min 0.02 0.06
81°
2012 Jun 29, 22:01 37.78131° -122.59916° 30 min 0.01 0.01
58°
2012 Jun 29, 21:31 37.78124° -122.59929° 30 min 0.02 0.00
238°
2012 Jun 29, 21:01 37.78125° -122.59927° 30 min 0.02 0.01
109°
2012 Jun 29, 20:31 37.78127° -122.59933° 30 min 0.02 0.00
58°
2012 Jun 29, 20:01 37.78127° -122.59935° 30 min 0.02 0.00
2012 Jun 29, 19:31 37.78127° -122.59935° 30 min 0.02 0.00
238°
2012 Jun 29, 19:01 37.78127° -122.59933° 30 min 0.02 0.01
227°
2012 Jun 29, 18:31 37.78131° -122.59929° 30 min 0.02 0.04
214°
2012 Jun 29, 18:01 37.78156° -122.59908° 30 min 0.02 0.04
266°
2012 Jun 29, 17:31 37.78157° -122.59869° 30 min 0.02 0.01
302°
2012 Jun 29, 17:01 37.78154° -122.59863° 30 min 0.02 0.00
270°
2012 Jun 29, 16:31 37.78154° -122.59858° 30 min 0.02 0.01
199°
2012 Jun 29, 16:01 37.78160° -122.59856° 30 min 0.02 0.01
2012 Jun 29, 15:31 37.78156° -122.59856° 30 min 0.02 0.00
238°
2012 Jun 29, 15:01 37.78156° -122.59854° 30 min 0.02 0.01
16°
2012 Jun 29, 14:31 37.78152° -122.59856° 30 min 0.02 0.01
270°
2012 Jun 29, 14:01 37.78152° -122.59850° 30 min 0.02 0.00
180°
2012 Jun 29, 13:31 37.78153° -122.59850° 30 min 0.02 0.00
149°
2012 Jun 29, 13:01 37.78156° -122.59852° 30 min 0.02 0.01
103°
2012 Jun 29, 12:31 37.78157° -122.59858° 30 min 0.02 0.01
116°
2012 Jun 29, 12:01 37.78162° -122.59869° 30 min 0.02 0.02
84°
2012 Jun 29, 11:31 37.78160° -122.59892° 30 min 0.02 0.04
81°
2012 Jun 29, 11:01 37.78154° -122.59935° 30 min 0.03 0.02
16°
2012 Jun 29, 10:31 37.78135° -122.59942° 30 min 0.02 0.01
348°
2012 Jun 29, 10:01 37.78127° -122.59940° 30 min 0.02 0.00
28°
2012 Jun 29, 09:31 37.78123° -122.59942° 30 min 0.02 0.01
180°
2012 Jun 29, 09:01 37.78127° -122.59942° 30 min 0.02 0.01
2012 Jun 29, 08:31 37.78123° -122.59942° 30 min 0.02 0.00
2012 Jun 29, 08:01 37.78122° -122.59942° 30 min 0.03 0.00
2012 Jun 29, 07:31 37.78121° -122.59942° 30 min 0.03 0.00
102°
2012 Jun 29, 07:01 37.78122° -122.59946° 30 min 0.03 0.01
337°
2012 Jun 29, 06:31 37.78114° -122.59942° 30 min 0.03 0.01
302°
2012 Jun 29, 06:01 37.78111° -122.59937° 30 min 0.03 0.01
341°
2012 Jun 29, 05:31 37.78106° -122.59935° 30 min 0.03 0.01
263°
2012 Jun 29, 05:01 37.78107° -122.59923° 30 min 0.02 0.02
312°
2012 Jun 29, 04:31 37.78096° -122.59908° 30 min 0.02 0.02
284°
2012 Jun 29, 04:01 37.78092° -122.59886° 30 min 0.02 0.02
242°
2012 Jun 29, 03:31 37.78101° -122.59866° 30 min 0.02 0.02
244°
2012 Jun 29, 03:01 37.78107° -122.59850° 30 min 0.02 0.01
192°
2012 Jun 29, 02:31 37.78115° -122.59847° 30 min 0.02 0.01
180°
2012 Jun 29, 02:01 37.78120° -122.59847° 30 min 0.02 0.01
222°
2012 Jun 29, 01:31 37.78125° -122.59841° 30 min 0.02 0.00
2012 Jun 29, 01:01 37.78125° -122.59841° 30 min 0.02 0.01
180°
2012 Jun 29, 00:31 37.78130° -122.59841° 30 min 0.02 0.00
180°
2012 Jun 29, 00:01 37.78133° -122.59841° 30 min 0.02 0.00
2012 Jun 28, 23:31 37.78133° -122.59841° 30 min 0.02 0.01
180°
2012 Jun 28, 23:01 37.78137° -122.59841° 6 h, 30 min 0.02 0.01
43°
2012 Jun 28, 16:31 37.78078° -122.59910° 30 min 0.03 0.08
217°
2012 Jun 28, 16:01 37.78132° -122.59858° 30 min 0.02 0.01
248°
2012 Jun 28, 15:31 37.78134° -122.59852° 30 min 0.02 0.01
214°
2012 Jun 28, 15:01 37.78139° -122.59847° 30 min 0.02 0.01
143°
2012 Jun 28, 14:31 37.78148° -122.59856° 30 min 0.02 0.01
248°
2012 Jun 28, 14:01 37.78150° -122.59850° 30 min 0.02 0.00
317°
2012 Jun 28, 13:31 37.78148° -122.59847° 30 min 0.02 0.00
2012 Jun 28, 13:01 37.78148° -122.59847° 30 min 0.02 0.01
151°
2012 Jun 28, 12:31 37.78154° -122.59852° 30 min 0.02 0.01
161°
2012 Jun 28, 12:01 37.78160° -122.59854° 30 min 0.02 0.00
19°
2012 Jun 28, 11:31 37.78156° -122.59856° 30 min 0.02 0.02
38°
2012 Jun 28, 11:01 37.78146° -122.59866° 30 min 0.01 0.04
118°
2012 Jun 28, 10:31 37.78163° -122.59908° 30 min 0.02 0.03
49°
2012 Jun 28, 10:01 37.78148° -122.59929° 30 min 0.02 0.02
29°
2012 Jun 28, 09:31 37.78136° -122.59937° 30 min 0.02 0.01
295°
2012 Jun 28, 09:01 37.78134° -122.59931° 30 min 0.02 0.01
37°
2012 Jun 28, 08:31 37.78127° -122.59937° 30 min 0.02 0.01
23°
2012 Jun 28, 08:01 37.78123° -122.59940° 30 min 0.02 0.01
85°
2012 Jun 28, 07:31 37.78122° -122.59955° 30 min 0.03 0.01
302°
2012 Jun 28, 07:01 37.78118° -122.59946° 30 min 0.03 0.01
270°
2012 Jun 28, 06:31 37.78118° -122.59937° 30 min 0.02 0.00
2012 Jun 28, 06:01 37.78118° -122.59937° 5 h 0.02 0.01
263°
2012 Jun 28, 01:01 37.78128° -122.59833° 30 min 0.03 0.01
139°
2012 Jun 28, 00:31 37.78132° -122.59837° 30 min 0.03 0.01
161°
2012 Jun 28, 00:01 37.78137° -122.59839° 30 min 0.02 0.00
137°
2012 Jun 27, 23:31 37.78139° -122.59841° 30 min 0.02 0.01
180°
2012 Jun 27, 23:01 37.78146° -122.59841° 30 min 0.03 0.01
155°
2012 Jun 27, 22:31 37.78152° -122.59845° 30 min 0.03 0.01
61°
2012 Jun 27, 22:01 37.78149° -122.59852° 30 min 0.02 0.02
120°
2012 Jun 27, 21:31 37.78156° -122.59866° 30 min 0.02 0.04
103°
2012 Jun 27, 21:01 37.78163° -122.59908° 30 min 0.02 0.02
51°
2012 Jun 27, 20:31 37.78154° -122.59921° 30 min 0.02 0.02
44°
2012 Jun 27, 20:01 37.78143° -122.59935° 30 min 0.02 0.01
50°
2012 Jun 27, 19:31 37.78138° -122.59942° 30 min 0.03 0.01
23°
2012 Jun 27, 19:01 37.78134° -122.59944° 30 min 0.03 0.00
270°
2012 Jun 27, 18:31 37.78134° -122.59942° 30 min 0.02 0.00
302°
2012 Jun 27, 18:01 37.78133° -122.59940° 30 min 0.02 0.01
214°
2012 Jun 27, 17:31 37.78138° -122.59935° 30 min 0.02 0.01
2012 Jun 27, 17:01 37.78133° -122.59935° 30 min 0.02 0.01
334°
2012 Jun 27, 16:31 37.78127° -122.59931° 30 min 0.02 0.01
135°
2012 Jun 27, 16:01 37.78130° -122.59935° 30 min 0.02 0.01
161°
2012 Jun 27, 15:31 37.78135° -122.59937° 30 min 0.02 0.01
328°
2012 Jun 27, 15:01 37.78127° -122.59931° 30 min 0.02 0.02
345°
2012 Jun 27, 14:31 37.78114° -122.59927° 30 min 0.02 0.07
245°
2012 Jun 27, 14:01 37.78137° -122.59863° 30 min 0.01 0.01
262°
2012 Jun 27, 13:31 37.78138° -122.59856° 30 min 0.02 0.00
249°
2012 Jun 27, 13:01 37.78139° -122.59852° 30 min 0.02 0.02
11°
2012 Jun 27, 12:31 37.78123° -122.59856° 30 min 0.02 0.02
204°
2012 Jun 27, 12:01 37.78138° -122.59847° 30 min 0.02 0.01
148°
2012 Jun 27, 11:31 37.78144° -122.59852° 30 min 0.02 0.01
313°
2012 Jun 27, 11:01 37.78140° -122.59847° 30 min 0.02 0.00
72°
2012 Jun 27, 10:31 37.78139° -122.59852° 30 min 0.02 0.01
158°
2012 Jun 27, 10:01 37.78144° -122.59854° 30 min 0.02 0.06
78°
2012 Jun 27, 09:31 37.78134° -122.59912° 30 min 0.01 0.02
64°
2012 Jun 27, 09:01 37.78127° -122.59931° 30 min 0.02 0.01
10°
2012 Jun 27, 08:31 37.78117° -122.59933° 30 min 0.02 0.00
90°
2012 Jun 27, 08:01 37.78117° -122.59935° 30 min 0.02 0.01
170°
2012 Jun 27, 07:31 37.78127° -122.59937° 30 min 0.02 0.01
10°
2012 Jun 27, 07:01 37.78117° -122.59940° 30 min 0.02 0.00
90°
2012 Jun 27, 06:31 37.78117° -122.59942° 30 min 0.03 0.00
270°
2012 Jun 27, 06:01 37.78117° -122.59940° 30 min 0.02 0.02
344°
2012 Jun 27, 05:31 37.78104° -122.59935° 30 min 0.03 0.00
328°
2012 Jun 27, 05:01 37.78102° -122.59933° 30 min 0.03 0.01
270°
2012 Jun 27, 04:31 37.78102° -122.59924° 30 min 0.02 0.01
297°
2012 Jun 27, 04:01 37.78098° -122.59916° 30 min 0.02 0.01
302°
2012 Jun 27, 03:31 37.78094° -122.59908° 30 min 0.02 0.01
284°
2012 Jun 27, 03:01 37.78091° -122.59892° 30 min 0.02 0.01
231°
2012 Jun 27, 02:31 37.78096° -122.59884° 30 min 0.02 0.02
258°
2012 Jun 27, 02:01 37.78099° -122.59866° 30 min 0.02 0.02
229°
2012 Jun 27, 01:31 37.78109° -122.59852° 30 min 0.02 0.00
180°
2012 Jun 27, 01:01 37.78110° -122.59852° 30 min 0.02 0.01
209°
2012 Jun 27, 00:31 37.78117° -122.59847° 30 min 0.02 0.01
221°
2012 Jun 27, 00:01 37.78120° -122.59843° 4 h 0.02 0.01
144°
2012 Jun 26, 20:01 37.78157° -122.59878° 8 h, 30 min 0.02 0.00
325°
2012 Jun 26, 11:31 37.78128° -122.59852° 30 min 0.02 0.00
2012 Jun 26, 11:01 37.78127° -122.59852° 6 h, 30 min 0.02 0.01
84°
2012 Jun 26, 04:31 37.78119° -122.59942° 30 min 0.03 0.01
308°
2012 Jun 26, 04:01 37.78115° -122.59935° 30 min 0.02 0.00
180°
2012 Jun 26, 03:31 37.78118° -122.59935° 30 min 0.02 0.01
90°
2012 Jun 26, 03:01 37.78118° -122.59950° 30 min 0.03 0.02
290°
2012 Jun 26, 02:31 37.78112° -122.59931° 30 min 0.02 0.02
300°
2012 Jun 26, 02:01 37.78104° -122.59912° 30 min 0.02 0.05
253°
2012 Jun 26, 01:31 37.78115° -122.59863° 30 min 0.02 0.02
226°
2012 Jun 26, 01:01 37.78127° -122.59847° 30 min 0.02 0.02
180°
2012 Jun 26, 00:31 37.78144° -122.59847° 30 min 0.02 0.01
180°
2012 Jun 26, 00:01 37.78148° -122.59847° 30 min 0.02 0.01
157°
2012 Jun 25, 23:31 37.78156° -122.59852° 30 min 0.02 0.00
252°
2012 Jun 25, 23:01 37.78157° -122.59847° 30 min 0.03 0.00
2012 Jun 25, 22:31 37.78157° -122.59847° 30 min 0.03 0.02
334°
2012 Jun 25, 22:01 37.78140° -122.59837° 30 min 0.03 0.02
151°
2012 Jun 25, 21:31 37.78156° -122.59847° 30 min 0.03 0.00
149°
2012 Jun 25, 21:01 37.78159° -122.59850° 30 min 0.03 0.00
122°
2012 Jun 25, 20:31 37.78160° -122.59852° 30 min 0.03 0.02
122°
2012 Jun 25, 20:01 37.78168° -122.59869° 30 min 0.03 0.01
103°
2012 Jun 25, 19:31 37.78170° -122.59882° 30 min 0.02 0.03
82°
2012 Jun 25, 19:01 37.78167° -122.59912° 30 min 0.02 0.02
54°
2012 Jun 25, 18:31 37.78159° -122.59927° 30 min 0.02 0.02
32°
2012 Jun 25, 18:01 37.78148° -122.59935° 30 min 0.02 0.02
37°
2012 Jun 25, 17:31 37.78136° -122.59946° 30 min 0.03 0.00
28°
2012 Jun 25, 17:01 37.78134° -122.59948° 30 min 0.03 0.01
349°
2012 Jun 25, 16:31 37.78127° -122.59946° 30 min 0.03 0.00
270°
2012 Jun 25, 16:01 37.78127° -122.59942° 30 min 0.02 0.01
122°
2012 Jun 25, 15:31 37.78130° -122.59946° 30 min 0.03 0.01
230°
2012 Jun 25, 15:01 37.78133° -122.59942° 30 min 0.02 0.01
2012 Jun 25, 14:31 37.78122° -122.59942° 30 min 0.03 0.00
2012 Jun 25, 14:01 37.78120° -122.59942° 30 min 0.03 0.00
270°
2012 Jun 25, 13:31 37.78120° -122.59937° 30 min 0.02 0.00
2012 Jun 25, 13:01 37.78119° -122.59937° 30 min 0.02 0.00
302°
2012 Jun 25, 12:31 37.78118° -122.59935° 30 min 0.02 0.00
208°
2012 Jun 25, 12:01 37.78120° -122.59933° 30 min 0.02 0.01
278°
2012 Jun 25, 11:31 37.78119° -122.59923° 30 min 0.02 0.03
290°
2012 Jun 25, 11:01 37.78110° -122.59892° 30 min 0.01 0.03
264°
2012 Jun 25, 10:31 37.78112° -122.59865° 30 min 0.02 0.03
209°
2012 Jun 25, 10:01 37.78131° -122.59852° 30 min 0.02 0.01
203°
2012 Jun 25, 09:31 37.78139° -122.59847° 30 min 0.02 0.01
151°
2012 Jun 25, 09:01 37.78146° -122.59852° 30 min 0.02 0.02
140°
2012 Jun 25, 08:31 37.78156° -122.59863° 30 min 0.02 0.01
116°
2012 Jun 25, 08:01 37.78160° -122.59873° 30 min 0.02 0.07
69°
2012 Jun 25, 07:31 37.78138° -122.59944° 30 min 0.03 0.01
300°
2012 Jun 25, 07:01 37.78134° -122.59935° 30 min 0.02 0.00
31°
2012 Jun 25, 06:31 37.78131° -122.59937° 30 min 0.02 0.00
28°
2012 Jun 25, 06:01 37.78127° -122.59940° 30 min 0.02 0.00
67°
2012 Jun 25, 05:31 37.78127° -122.59942° 30 min 0.02 0.01
285°
2012 Jun 25, 05:01 37.78124° -122.59931° 30 min 0.02 0.01
22°
2012 Jun 25, 04:31 37.78117° -122.59935° 30 min 0.02 0.00
2012 Jun 25, 04:01 37.78117° -122.59935° 30 min 0.02 0.02
347°
2012 Jun 25, 03:31 37.78104° -122.59931° 30 min 0.03 0.00
180°
2012 Jun 25, 03:01 37.78106° -122.59931° 30 min 0.02 0.01
295°
2012 Jun 25, 02:31 37.78103° -122.59923° 30 min 0.02 0.00
2012 Jun 25, 02:01 37.78103° -122.59923° 30 min 0.02 0.04
269°
2012 Jun 25, 01:31 37.78104° -122.59875° 30 min 0.02 0.03
239°
2012 Jun 25, 01:01 37.78115° -122.59852° 30 min 0.02 0.02
196°
2012 Jun 25, 00:31 37.78134° -122.59845° 30 min 0.02 0.01
170°
2012 Jun 25, 00:01 37.78144° -122.59847° 30 min 0.02 0.01
180°
2012 Jun 24, 23:31 37.78148° -122.59847° 30 min 0.02 0.01
164°
2012 Jun 24, 23:01 37.78154° -122.59850° 30 min 0.02 0.00
270°
2012 Jun 24, 22:31 37.78154° -122.59845° 30 min 0.03 0.00
58°
2012 Jun 24, 22:01 37.78153° -122.59847° 30 min 0.02 0.01
23°
2012 Jun 24, 21:31 37.78149° -122.59850° 30 min 0.02 0.01
199°
2012 Jun 24, 21:01 37.78154° -122.59847° 30 min 0.03 0.01
47°
2012 Jun 24, 20:31 37.78151° -122.59852° 30 min 0.02 0.01
180°
2012 Jun 24, 20:01 37.78157° -122.59852° 30 min 0.02 0.01
139°
2012 Jun 24, 19:31 37.78161° -122.59856° 30 min 0.02 0.01
149°
2012 Jun 24, 19:01 37.78167° -122.59860° 30 min 0.03 0.03
98°
2012 Jun 24, 18:31 37.78170° -122.59892° 30 min 0.02 0.03
69°
2012 Jun 24, 18:01 37.78162° -122.59921° 30 min 0.02 0.02
42°
2012 Jun 24, 17:31 37.78147° -122.59937° 30 min 0.02 0.01
2012 Jun 24, 17:01 37.78137° -122.59937° 30 min 0.02 0.01
25°
2012 Jun 24, 16:31 37.78130° -122.59942° 30 min 0.02 0.00
2012 Jun 24, 16:01 37.78130° -122.59942° 30 min 0.02 0.01
41°
2012 Jun 24, 15:31 37.78125° -122.59946° 30 min 0.03 0.00
322°
2012 Jun 24, 15:01 37.78123° -122.59944° 30 min 0.03 0.00
43°
2012 Jun 24, 14:31 37.78121° -122.59946° 30 min 0.03 0.00
2012 Jun 24, 14:01 37.78119° -122.59946° 30 min 0.03 0.01
302°
2012 Jun 24, 13:31 37.78117° -122.59942° 30 min 0.03 0.00
2012 Jun 24, 13:01 37.78115° -122.59942° 30 min 0.03 0.01
310°
2012 Jun 24, 12:31 37.78112° -122.59937° 30 min 0.02 0.00
322°
2012 Jun 24, 12:01 37.78110° -122.59935° 30 min 0.02 0.01
164°
2012 Jun 24, 11:31 37.78117° -122.59937° 30 min 0.02 0.02
316°
2012 Jun 24, 11:01 37.78103° -122.59921° 30 min 0.02 0.02
279°
2012 Jun 24, 10:31 37.78101° -122.59901° 30 min 0.02 0.04
248°
2012 Jun 24, 10:01 37.78115° -122.59858° 30 min 0.02 0.02
190°
2012 Jun 24, 09:31 37.78133° -122.59854° 30 min 0.02 0.01
318°
2012 Jun 24, 09:01 37.78127° -122.59847° 30 min 0.02 0.01
180°
2012 Jun 24, 08:31 37.78138° -122.59847° 30 min 0.02 0.01
180°
2012 Jun 24, 08:01 37.78147° -122.59847° 30 min 0.02 0.01
2012 Jun 24, 07:31 37.78140° -122.59847° 30 min 0.02 0.01
150°
2012 Jun 24, 07:01 37.78150° -122.59854° 30 min 0.02 0.03
115°
2012 Jun 24, 06:31 37.78160° -122.59882° 30 min 0.02 0.05
64°
2012 Jun 24, 06:01 37.78140° -122.59931° 30 min 0.02 0.01
2012 Jun 24, 05:31 37.78132° -122.59931° 30 min 0.02 0.01
131°
2012 Jun 24, 05:01 37.78136° -122.59937° 30 min 0.02 0.01
289°
2012 Jun 24, 04:31 37.78134° -122.59929° 30 min 0.02 0.01
49°
2012 Jun 24, 04:01 37.78127° -122.59940° 30 min 0.02 0.00
332°
2012 Jun 24, 03:31 37.78123° -122.59937° 30 min 0.02 0.02
338°
2012 Jun 24, 03:01 37.78111° -122.59931° 30 min 0.02 0.00
2012 Jun 24, 02:31 37.78108° -122.59931° 1 h 0.02 0.01
287°
2012 Jun 24, 01:31 37.78104° -122.59912° 30 min 0.02 0.03
258°
2012 Jun 24, 01:01 37.78109° -122.59879° 1 h 0.01 0.03
210°
2012 Jun 24, 00:01 37.78147° -122.59852° 30 min 0.02 0.00
180°
2012 Jun 23, 23:31 37.78148° -122.59852° 30 min 0.02 0.01
196°
2012 Jun 23, 23:01 37.78154° -122.59850° 30 min 0.02 0.00
2012 Jun 23, 22:31 37.78154° -122.59850° 30 min 0.02 0.00
322°
2012 Jun 23, 22:01 37.78152° -122.59847° 30 min 0.02 0.01
189°
2012 Jun 23, 21:31 37.78164° -122.59845° 30 min 0.03 0.01
11°
2012 Jun 23, 21:01 37.78154° -122.59847° 30 min 0.03 0.01
338°
2012 Jun 23, 20:31 37.78150° -122.59845° 30 min 0.02 0.01
164°
2012 Jun 23, 20:01 37.78156° -122.59847° 30 min 0.03 0.01
217°
2012 Jun 23, 19:31 37.78165° -122.59839° 30 min 0.03 0.04
59°
2012 Jun 23, 19:01 37.78148° -122.59875° 30 min 0.01 0.02
219°
2012 Jun 23, 18:31 37.78163° -122.59860° 30 min 0.02 0.02
94°
2012 Jun 23, 18:01 37.78164° -122.59879° 30 min 0.02 0.04
83°
2012 Jun 23, 17:31 37.78160° -122.59923° 30 min 0.02 0.02
37°
2012 Jun 23, 17:01 37.78144° -122.59937° 30 min 0.02 0.01
337°
2012 Jun 23, 16:31 37.78137° -122.59933° 30 min 0.02 0.01
46°
2012 Jun 23, 16:01 37.78131° -122.59942° 30 min 0.02 0.01
25°
2012 Jun 23, 15:31 37.78123° -122.59946° 30 min 0.03 0.00
2012 Jun 23, 15:01 37.78120° -122.59946° 30 min 0.03 0.00
2012 Jun 23, 14:31 37.78119° -122.59946° 30 min 0.03 0.00
252°
2012 Jun 23, 14:01 37.78120° -122.59942° 30 min 0.03 0.00
180°
2012 Jun 23, 13:31 37.78121° -122.59942° 30 min 0.03 0.00
2012 Jun 23, 13:01 37.78120° -122.59942° 30 min 0.03 0.01
2012 Jun 23, 12:31 37.78115° -122.59942° 30 min 0.03 0.01
302°
2012 Jun 23, 12:01 37.78111° -122.59935° 4 h, 30 min 0.02 0.01
248°
2012 Jun 23, 07:31 37.78140° -122.59845° 30 min 0.02 0.01
157°
2012 Jun 23, 07:01 37.78144° -122.59847° 30 min 0.02 0.00
180°
2012 Jun 23, 06:31 37.78147° -122.59847° 30 min 0.02 0.01
129°
2012 Jun 23, 06:01 37.78152° -122.59856° 30 min 0.02 0.02
126°
2012 Jun 23, 05:31 37.78161° -122.59871° 30 min 0.02 0.04
91°
2012 Jun 23, 05:01 37.78162° -122.59912° 30 min 0.02 0.02
52°
2012 Jun 23, 04:31 37.78150° -122.59931° 4 h 0.02 0.00
236°
2012 Jun 23, 00:31 37.78156° -122.59921° 1 h 0.02 0.02
251°
2012 Jun 22, 23:31 37.78167° -122.59878° 30 min 0.02 0.00
282°
2012 Jun 22, 23:01 37.78166° -122.59873° 30 min 0.02 0.01
278°
2012 Jun 22, 22:31 37.78165° -122.59863° 4 h 0.02 0.00
293°
2012 Jun 22, 18:31 37.78163° -122.59856° 1 h 0.03 0.01
114°
2012 Jun 22, 17:31 37.78170° -122.59878° 30 min 0.02 0.02
86°
2012 Jun 22, 17:01 37.78169° -122.59897° 30 min 0.02 0.03
62°
2012 Jun 22, 16:31 37.78156° -122.59929° 30 min 0.02 0.02
29°
2012 Jun 22, 16:01 37.78140° -122.59940° 30 min 0.02 0.01
70°
2012 Jun 22, 15:31 37.78137° -122.59950° 30 min 0.03 0.01
318°
2012 Jun 22, 15:01 37.78132° -122.59944° 30 min 0.03 0.01
2012 Jun 22, 14:31 37.78127° -122.59944° 30 min 0.03 0.00
2012 Jun 22, 14:01 37.78124° -122.59944° 30 min 0.03 0.00
322°
2012 Jun 22, 13:31 37.78122° -122.59942° 30 min 0.03 0.00
78°
2012 Jun 22, 13:01 37.78121° -122.59946° 30 min 0.03 0.00
302°
2012 Jun 22, 12:31 37.78120° -122.59944° 30 min 0.03 0.00
2012 Jun 22, 12:01 37.78120° -122.59944° 30 min 0.03 0.00
58°
2012 Jun 22, 11:31 37.78119° -122.59946° 30 min 0.03 0.02
317°
2012 Jun 22, 11:01 37.78109° -122.59935° 30 min 0.02 0.01
301°
2012 Jun 22, 10:31 37.78104° -122.59923° 30 min 0.02 0.00
2012 Jun 22, 10:01 37.78104° -122.59923° 7 h, 30 min 0.02 0.00
154°
2012 Jun 22, 02:31 37.78123° -122.59935° 30 min 0.02 0.01
331°
2012 Jun 22, 02:01 37.78118° -122.59931° 30 min 0.02 0.01
90°
2012 Jun 22, 01:31 37.78118° -122.59937° 30 min 0.02 0.00
270°
2012 Jun 22, 01:01 37.78118° -122.59935° 30 min 0.02 0.01
322°
2012 Jun 22, 00:31 37.78109° -122.59927° 30 min 0.02 0.04
277°
2012 Jun 22, 00:01 37.78105° -122.59882° 2 h 0.02 0.02
211°
2012 Jun 21, 22:01 37.78150° -122.59847° 30 min 0.02 0.00
317°
2012 Jun 21, 21:31 37.78148° -122.59845° 30 min 0.02 0.00
2012 Jun 21, 21:01 37.78148° -122.59845° 30 min 0.02 0.00
180°
2012 Jun 21, 20:31 37.78150° -122.59845° 30 min 0.02 0.00
2012 Jun 21, 20:01 37.78148° -122.59845° 30 min 0.02 0.01
180°
2012 Jun 21, 19:31 37.78152° -122.59845° 30 min 0.03 0.00
208°
2012 Jun 21, 19:01 37.78154° -122.59843° 30 min 0.03 0.00
47°
2012 Jun 21, 18:31 37.78153° -122.59845° 30 min 0.03 0.01
180°
2012 Jun 21, 18:01 37.78163° -122.59845° 30 min 0.03 0.01
52°
2012 Jun 21, 17:31 37.78159° -122.59852° 30 min 0.02 0.01
100°
2012 Jun 21, 17:01 37.78160° -122.59860° 30 min 0.02 0.03
107°
2012 Jun 21, 16:31 37.78168° -122.59895° 30 min 0.02 0.04
54°
2012 Jun 21, 16:01 37.78150° -122.59927° 30 min 0.02 0.02
28°
2012 Jun 21, 15:31 37.78134° -122.59937° 30 min 0.02 0.01
99°
2012 Jun 21, 15:01 37.78135° -122.59946° 30 min 0.03 0.02
337°
2012 Jun 21, 14:31 37.78118° -122.59937° 30 min 0.02 0.01
137°
2012 Jun 21, 14:01 37.78125° -122.59946° 30 min 0.03 0.01
302°
2012 Jun 21, 13:31 37.78123° -122.59942° 30 min 0.02 0.00
62°
2012 Jun 21, 13:01 37.78121° -122.59946° 30 min 0.03 0.00
180°
2012 Jun 21, 12:31 37.78122° -122.59946° 30 min 0.03 0.00
111°
2012 Jun 21, 12:01 37.78123° -122.59950° 30 min 0.03 0.00
270°
2012 Jun 21, 11:31 37.78123° -122.59946° 30 min 0.03 0.00
2012 Jun 21, 11:01 37.78120° -122.59946° 30 min 0.03 0.01
326°
2012 Jun 21, 10:31 37.78115° -122.59942° 30 min 0.03 0.01
297°
2012 Jun 21, 10:01 37.78111° -122.59933° 30 min 0.02 0.01
302°
2012 Jun 21, 09:31 37.78106° -122.59923° 30 min 0.02 0.02
302°
2012 Jun 21, 09:01 37.78098° -122.59908° 30 min 0.02 0.02
279°
2012 Jun 21, 08:31 37.78095° -122.59884° 30 min